Time;durP1;ratioP1;P1;durP2;ratioP2;P2;SDS_P1;SDS_P2;PMS_P1;PMS_P2;Temp;Humidity;BMP_temperature;BMP_pressure;BME280_temperature;BME280_humidity;BME280_pressure;Samples;Min_cycle;Max_cycle;Signal;HPM_P1;HPM_P2
2022/09/21 00:02:19;;;;;;;6.57;2.43;;;;;;;;;;5066968;28;20223;-81
2022/09/21 00:05:24;;;;;;;2.90;2.40;;;;;;;;;;5079990;28;20180;-81
2022/09/21 00:08:28;;;;;;;2.87;2.00;;;;;;;;;;5067112;28;20175;-81
2022/09/21 00:11:34;;;;;;;3.97;2.37;;;;;;;;;;5067110;28;20214;-81
2022/09/21 00:14:38;;;;;;;5.33;2.60;;;;;;;;;;5079264;28;20176;-81
2022/09/21 00:17:44;;;;;;;3.20;2.17;;;;;;;;;;5078601;28;20210;-81
2022/09/21 00:20:48;;;;;;;2.50;2.13;;;;;;;;;;5066618;28;20187;-81
2022/09/21 00:23:53;;;;;;;5.53;2.67;;;;;;;;;;5066768;28;20171;-81
2022/09/21 00:26:57;;;;;;;3.90;2.50;;;;;;;;;;5066339;28;20179;-81
2022/09/21 00:30:02;;;;;;;7.17;2.20;;;;;;;;;;5054896;28;20181;-81
2022/09/21 00:33:07;;;;;;;3.17;2.20;;;;;;;;;;5054761;28;20207;-81
2022/09/21 00:36:15;;;;;;;3.73;2.60;;;;;;;;;;5054734;28;20179;-81
2022/09/21 00:39:20;;;;;;;4.53;2.23;;;;;;;;;;5065983;28;20179;-81
2022/09/21 00:42:31;;;;;;;6.30;2.60;;;;;;;;;;5077221;28;20211;-81
2022/09/21 00:45:35;;;;;;;2.47;2.23;;;;;;;;;;5077709;28;20179;-82
2022/09/21 00:48:40;;;;;;;4.03;2.23;;;;;;;;;;5089555;28;20179;-81
2022/09/21 00:51:46;;;;;;;3.43;2.17;;;;;;;;;;5054132;28;20219;-81
2022/09/21 00:54:54;;;;;;;4.90;2.60;;;;;;;;;;5055198;28;20181;-81
2022/09/21 00:58:07;;;;;;;3.57;2.17;;;;;;;;;;5054941;28;20540;-82
2022/09/21 01:01:15;;;;;;;5.07;2.50;;;;;;;;;;5065767;28;20187;-81
2022/09/21 01:04:20;;;;;;;3.30;2.20;;;;;;;;;;5066121;28;20179;-81
2022/09/21 01:07:28;;;;;;;3.30;2.43;;;;;;;;;;5054708;28;20623;-81
2022/09/21 01:11:01;;;;;;;4.03;2.27;;;;;;;;;;5066367;28;20631;-82
2022/09/21 01:14:37;;;;;;;3.53;2.23;;;;;;;;;;5065692;28;20183;-81
2022/09/21 01:17:55;;;;;;;3.87;2.17;;;;;;;;;;5065531;28;20203;-81
2022/09/21 01:21:05;;;;;;;5.30;2.23;;;;;;;;;;5054497;28;20188;-82
2022/09/21 01:24:31;;;;;;;3.87;2.10;;;;;;;;;;5054148;28;20184;-82
2022/09/21 01:27:45;;;;;;;3.47;1.80;;;;;;;;;;5088946;28;20564;-82
2022/09/21 01:30:52;;;;;;;3.00;2.23;;;;;;;;;;5053601;28;20184;-82
2022/09/21 01:34:04;;;;;;;3.33;2.00;;;;;;;;;;5077938;28;20180;-82
2022/09/21 01:37:14;;;;;;;2.43;1.97;;;;;;;;;;5053745;28;20179;-82
2022/09/21 01:40:54;;;;;;;4.93;2.20;;;;;;;;;;5053833;28;20618;-81
2022/09/21 01:44:07;;;;;;;4.00;2.60;;;;;;;;;;5060162;28;20200;-81
2022/09/21 01:47:13;;;;;;;10.53;2.70;;;;;;;;;;5065433;28;20180;-81
2022/09/21 01:50:19;;;;;;;3.83;2.33;;;;;;;;;;5075882;28;20519;-82
2022/09/21 01:53:30;;;;;;;3.37;2.33;;;;;;;;;;5053082;28;20219;-80
2022/09/21 01:56:54;;;;;;;3.13;2.40;;;;;;;;;;5052777;28;20203;-81
2022/09/21 02:00:00;;;;;;;2.83;2.50;;;;;;;;;;5064194;28;20172;-81
2022/09/21 02:03:12;;;;;;;5.17;2.50;;;;;;;;;;5063731;28;20207;-81
2022/09/21 02:06:18;;;;;;;3.50;2.60;;;;;;;;;;5063851;28;20187;-81
2022/09/21 02:09:23;;;;;;;3.50;2.40;;;;;;;;;;5052499;28;20180;-81
2022/09/21 02:12:27;;;;;;;4.10;2.33;;;;;;;;;;5075207;28;20211;-80
2022/09/21 02:15:38;;;;;;;2.20;2.00;;;;;;;;;;5075581;28;20190;-80
2022/09/21 02:19:50;;;;;;;3.07;2.40;;;;;;;;;;5075542;28;20213;-81
2022/09/21 02:22:58;;;;;;;4.47;1.97;;;;;;;;;;5022254;28;20215;-80
2022/09/21 02:26:14;;;;;;;2.60;2.13;;;;;;;;;;5075321;28;20551;-80
2022/09/21 02:29:31;;;;;;;2.63;2.00;;;;;;;;;;5076149;28;20172;-80
2022/09/21 02:32:49;;;;;;;3.40;2.20;;;;;;;;;;5052117;28;20215;-80
2022/09/21 02:36:20;;;;;;;3.90;2.60;;;;;;;;;;5074914;28;20185;-80
2022/09/21 02:39:48;;;;;;;2.53;2.20;;;;;;;;;;5063664;28;20663;-80
2022/09/21 02:42:59;;;;;;;4.13;1.83;;;;;;;;;;5075249;28;20218;-81
2022/09/21 02:46:18;;;;;;;3.63;2.20;;;;;;;;;;5064007;28;20179;-80
2022/09/21 02:49:28;;;;;;;4.27;2.63;;;;;;;;;;5087035;28;20176;-80
2022/09/21 02:52:33;;;;;;;3.47;2.43;;;;;;;;;;5075151;28;20219;-80
2022/09/21 02:55:38;;;;;;;2.53;1.90;;;;;;;;;;5078287;28;20199;-80
2022/09/21 02:58:47;;;;;;;3.07;2.57;;;;;;;;;;5067704;28;20211;-80
2022/09/21 03:01:52;;;;;;;4.67;2.20;;;;;;;;;;5067893;28;20219;-80
2022/09/21 03:04:57;;;;;;;4.90;3.00;;;;;;;;;;5079121;28;20194;-81
2022/09/21 03:08:01;;;;;;;3.50;2.30;;;;;;;;;;5067204;28;20195;-80
2022/09/21 03:11:06;;;;;;;3.10;2.27;;;;;;;;;;5078683;28;20179;-80
2022/09/21 03:14:10;;;;;;;3.57;2.40;;;;;;;;;;5067288;28;20179;-80
2022/09/21 03:17:14;;;;;;;4.20;2.60;;;;;;;;;;5068330;28;20175;-80
2022/09/21 03:20:18;;;;;;;2.80;2.20;;;;;;;;;;5068727;28;20567;-80
2022/09/21 03:23:23;;;;;;;6.87;2.37;;;;;;;;;;5080118;28;20211;-80
2022/09/21 03:26:27;;;;;;;3.87;2.27;;;;;;;;;;5080104;28;20635;-80
2022/09/21 03:29:31;;;;;;;2.63;2.30;;;;;;;;;;5069010;28;20196;-81
2022/09/21 03:32:36;;;;;;;4.27;2.37;;;;;;;;;;5068513;28;20219;-81
2022/09/21 03:35:40;;;;;;;3.23;2.47;;;;;;;;;;5080101;28;20175;-80
2022/09/21 03:38:45;;;;;;;2.93;2.00;;;;;;;;;;5079608;28;20574;-80
2022/09/21 03:41:49;;;;;;;2.70;2.40;;;;;;;;;;5079222;28;20219;-79
2022/09/21 03:44:53;;;;;;;4.10;2.10;;;;;;;;;;5068263;28;20171;-80
2022/09/21 03:47:59;;;;;;;4.17;2.60;;;;;;;;;;5067985;28;20618;-80
2022/09/21 03:51:03;;;;;;;5.13;2.40;;;;;;;;;;5057097;28;20534;-81
2022/09/21 03:54:07;;;;;;;3.80;2.63;;;;;;;;;;5067852;28;20195;-80
2022/09/21 03:57:11;;;;;;;2.70;2.33;;;;;;;;;;5067803;28;20543;-81
2022/09/21 04:00:16;;;;;;;3.20;2.70;;;;;;;;;;5091247;28;20172;-81
2022/09/21 04:03:20;;;;;;;4.17;2.50;;;;;;;;;;5067847;28;20219;-80
2022/09/21 04:06:24;;;;;;;3.60;2.33;;;;;;;;;;5066904;28;20180;-80
2022/09/21 04:09:30;;;;;;;3.03;2.40;;;;;;;;;;5067836;28;20172;-80
2022/09/21 04:12:35;;;;;;;5.73;2.40;;;;;;;;;;5067646;28;20219;-80
2022/09/21 04:15:39;;;;;;;4.03;2.37;;;;;;;;;;5079266;28;20180;-80
2022/09/21 04:18:43;;;;;;;4.93;2.70;;;;;;;;;;5078587;28;20203;-80
2022/09/21 04:21:50;;;;;;;3.20;2.40;;;;;;;;;;5067585;28;20223;-80
2022/09/21 04:24:54;;;;;;;3.77;2.70;;;;;;;;;;5055794;28;20184;-79
2022/09/21 04:27:58;;;;;;;4.13;2.17;;;;;;;;;;5078432;28;20175;-80
2022/09/21 04:31:02;;;;;;;3.93;2.60;;;;;;;;;;5090271;28;20176;-79
2022/09/21 04:34:10;;;;;;;5.00;2.70;;;;;;;;;;5066611;28;20173;-79
2022/09/21 04:37:15;;;;;;;2.53;2.23;;;;;;;;;;5066533;28;20511;-80
2022/09/21 04:40:19;;;;;;;3.03;2.33;;;;;;;;;;5066496;28;20211;-80
2022/09/21 04:43:23;;;;;;;2.63;2.20;;;;;;;;;;5066242;28;20219;-79
2022/09/21 04:46:27;;;;;;;2.57;2.37;;;;;;;;;;5066685;28;20184;-79
2022/09/21 04:49:31;;;;;;;4.27;2.40;;;;;;;;;;5089311;28;20184;-80
2022/09/21 04:52:36;;;;;;;3.33;2.30;;;;;;;;;;5078455;28;20214;-83
2022/09/21 04:55:39;;;;;;;2.50;2.10;;;;;;;;;;5054640;28;20203;-80
2022/09/21 04:58:44;;;;;;;5.60;2.40;;;;;;;;;;5077490;28;20215;-79
2022/09/21 05:01:48;;;;;;;4.07;2.63;;;;;;;;;;5065402;28;20219;-79
2022/09/21 05:04:52;;;;;;;5.00;3.83;;;;;;;;;;5077687;28;20179;-80
2022/09/21 05:07:56;;;;;;;4.10;3.30;;;;;;;;;;5065469;28;20179;-80
2022/09/21 05:11:01;;;;;;;4.67;3.10;;;;;;;;;;5065480;28;20175;-80
2022/09/21 05:14:05;;;;;;;4.47;2.53;;;;;;;;;;5078687;28;20175;-80
2022/09/21 05:17:09;;;;;;;5.13;2.80;;;;;;;;;;5088552;28;20183;-79
2022/09/21 05:20:13;;;;;;;4.10;2.70;;;;;;;;;;5051611;28;20722;-79
2022/09/21 05:23:17;;;;;;;3.80;3.17;;;;;;;;;;5074630;28;20211;-79
2022/09/21 05:26:21;;;;;;;4.00;2.97;;;;;;;;;;5074302;28;20180;-79
2022/09/21 05:29:25;;;;;;;4.13;3.00;;;;;;;;;;5075590;28;20164;-79
2022/09/21 05:32:40;;;;;;;4.70;2.67;;;;;;;;;;5075516;28;20690;-79
2022/09/21 05:36:17;;;;;;;5.77;2.50;;;;;;;;;;5077860;28;20551;-79
2022/09/21 05:39:22;;;;;;;5.40;3.13;;;;;;;;;;5076434;28;20207;-79
2022/09/21 05:42:26;;;;;;;4.03;3.00;;;;;;;;;;5076474;28;20694;-80
2022/09/21 05:45:31;;;;;;;3.30;2.60;;;;;;;;;;5054190;28;20172;-79
2022/09/21 05:48:40;;;;;;;6.67;3.27;;;;;;;;;;5065099;28;20626;-79
2022/09/21 05:52:01;;;;;;;5.07;3.40;;;;;;;;;;5064848;28;20219;-80
2022/09/21 05:55:28;;;;;;;5.77;3.40;;;;;;;;;;5064908;28;20631;-79
2022/09/21 05:58:56;;;;;;;10.53;3.60;;;;;;;;;;5065288;28;20655;-79
2022/09/21 06:02:12;;;;;;;6.83;3.93;;;;;;;;;;5064780;28;20219;-80
2022/09/21 06:05:16;;;;;;;6.63;3.80;;;;;;;;;;5075808;28;20199;-80
2022/09/21 06:08:21;;;;;;;8.67;4.10;;;;;;;;;;5063676;28;20631;-79
2022/09/21 06:11:25;;;;;;;9.47;3.83;;;;;;;;;;5064092;28;20211;-79
2022/09/21 06:14:29;;;;;;;4.57;3.63;;;;;;;;;;5076010;28;20187;-79
2022/09/21 06:17:33;;;;;;;9.80;4.27;;;;;;;;;;5076540;28;20176;-79
2022/09/21 06:20:38;;;;;;;11.80;4.80;;;;;;;;;;5064891;28;20202;-80
2022/09/21 06:23:42;;;;;;;11.53;4.27;;;;;;;;;;5065548;28;20183;-79
2022/09/21 06:26:46;;;;;;;8.03;4.13;;;;;;;;;;5065164;28;20183;-79
2022/09/21 06:29:51;;;;;;;8.20;4.10;;;;;;;;;;5064352;28;20180;-78
2022/09/21 06:32:59;;;;;;;11.27;4.43;;;;;;;;;;5064725;28;20219;-79
2022/09/21 06:36:03;;;;;;;14.40;5.90;;;;;;;;;;5077835;28;20191;-79
2022/09/21 06:39:07;;;;;;;5.70;3.40;;;;;;;;;;5053551;28;20211;-80
2022/09/21 06:42:12;;;;;;;5.67;3.07;;;;;;;;;;5076157;28;20219;-79
2022/09/21 06:45:16;;;;;;;8.03;3.27;;;;;;;;;;5065054;28;20171;-80
2022/09/21 06:48:21;;;;;;;12.33;5.40;;;;;;;;;;5065686;28;20187;-81
2022/09/21 06:51:25;;;;;;;8.20;5.77;;;;;;;;;;5054387;28;20214;-81
2022/09/21 06:54:29;;;;;;;5.40;3.30;;;;;;;;;;5077293;28;20171;-81
2022/09/21 06:57:33;;;;;;;5.60;2.50;;;;;;;;;;5077668;28;20183;-81
2022/09/21 07:00:37;;;;;;;8.03;3.30;;;;;;;;;;5067173;28;20203;-81
2022/09/21 07:03:42;;;;;;;4.37;2.90;;;;;;;;;;5066848;28;20180;-80
2022/09/21 07:06:47;;;;;;;13.83;3.20;;;;;;;;;;5077742;28;20686;-81
2022/09/21 07:09:51;;;;;;;8.23;3.20;;;;;;;;;;5077224;28;20213;-80
2022/09/21 07:12:54;;;;;;;6.60;3.23;;;;;;;;;;5066748;28;20219;-80
2022/09/21 07:16:04;;;;;;;9.93;2.70;;;;;;;;;;5055052;28;20175;-82
2022/09/21 07:19:08;;;;;;;4.40;2.80;;;;;;;;;;5054668;28;20548;-81
2022/09/21 07:22:13;;;;;;;4.20;2.40;;;;;;;;;;5054409;28;20686;-80
2022/09/21 07:25:17;;;;;;;4.53;2.73;;;;;;;;;;5078344;28;20172;-81
2022/09/21 07:28:21;;;;;;;81.53;59.30;;;;;;;;;;5067033;28;20184;-81
2022/09/21 07:31:25;;;;;;;229.67;142.10;;;;;;;;;;5075427;28;20218;-78
2022/09/21 07:34:34;;;;;;;134.83;100.20;;;;;;;;;;5075211;28;20178;-77
2022/09/21 07:37:38;;;;;;;38.73;12.70;;;;;;;;;;5076189;28;20182;-79
2022/09/21 07:40:43;;;;;;;9.67;4.37;;;;;;;;;;5076140;28;20222;-78
2022/09/21 07:43:47;;;;;;;7.07;3.67;;;;;;;;;;5079647;28;20199;-77
2022/09/21 07:46:51;;;;;;;7.50;2.97;;;;;;;;;;5090268;28;20195;-78
2022/09/21 07:49:55;;;;;;;13.97;4.40;;;;;;;;;;5079044;28;20167;-77
2022/09/21 07:53:01;;;;;;;4.43;3.20;;;;;;;;;;5078987;28;20214;-78
2022/09/21 07:56:08;;;;;;;18.40;4.10;;;;;;;;;;5089753;28;20203;-78
2022/09/21 07:59:12;;;;;;;4.73;3.50;;;;;;;;;;5078194;28;20184;-78
2022/09/21 08:02:16;;;;;;;6.00;3.83;;;;;;;;;;5078817;28;20682;-77
2022/09/21 08:05:21;;;;;;;5.73;4.03;;;;;;;;;;5079055;28;20191;-78
2022/09/21 08:08:25;;;;;;;13.07;4.93;;;;;;;;;;5078332;28;20195;-77
2022/09/21 08:11:30;;;;;;;9.40;4.97;;;;;;;;;;5078197;28;20211;-78
2022/09/21 08:14:34;;;;;;;5.83;4.00;;;;;;;;;;5080585;28;20670;-78
2022/09/21 08:17:39;;;;;;;6.70;4.33;;;;;;;;;;5079338;28;20195;-78
2022/09/21 08:20:43;;;;;;;5.50;4.23;;;;;;;;;;5067294;28;20207;-78
2022/09/21 08:23:48;;;;;;;6.07;4.10;;;;;;;;;;5067334;28;20180;-79
2022/09/21 08:26:54;;;;;;;12.43;10.93;;;;;;;;;;5079830;28;20528;-79
2022/09/21 08:29:58;;;;;;;5.57;4.33;;;;;;;;;;5067701;28;20527;-80
2022/09/21 08:33:02;;;;;;;6.17;3.70;;;;;;;;;;5067935;28;20214;-79
2022/09/21 08:36:08;;;;;;;5.87;3.53;;;;;;;;;;5068070;28;20187;-79
2022/09/21 08:39:12;;;;;;;6.40;3.17;;;;;;;;;;5079831;28;20183;-80
2022/09/21 08:42:39;;;;;;;4.83;2.27;;;;;;;;;;5080082;28;20219;-79
2022/09/21 08:45:45;;;;;;;2.03;1.20;;;;;;;;;;5067586;28;20179;-78
2022/09/21 08:49:15;;;;;;;1.03;0.77;;;;;;;;;;5078194;28;20180;-78
2022/09/21 08:52:20;;;;;;;9.50;1.37;;;;;;;;;;5066743;28;20215;-78
2022/09/21 08:55:24;;;;;;;3.57;1.20;;;;;;;;;;5080075;28;20199;-78
2022/09/21 08:58:31;;;;;;;4.27;1.47;;;;;;;;;;5091487;28;20180;-78
2022/09/21 09:01:58;;;;;;;6.23;1.60;;;;;;;;;;5078816;28;20230;-77
2022/09/21 09:05:07;;;;;;;2.40;1.30;;;;;;;;;;5079816;28;20183;-78
2022/09/21 09:08:45;;;;;;;2.00;1.20;;;;;;;;;;5080412;28;20180;-79
2022/09/21 09:12:08;;;;;;;17.53;1.83;;;;;;;;;;5078911;28;20215;-78
2022/09/21 09:15:20;;;;;;;3.03;1.10;;;;;;;;;;5079919;28;20643;-78
2022/09/21 09:18:37;;;;;;;1.87;1.23;;;;;;;;;;5078525;28;20176;-78
2022/09/21 09:21:43;;;;;;;2.73;1.20;;;;;;;;;;5078347;28;20227;-78
2022/09/21 09:24:51;;;;;;;1.20;1.00;;;;;;;;;;5079359;28;20175;-78
2022/09/21 09:28:12;;;;;;;4.03;1.10;;;;;;;;;;5079097;28;20515;-78
2022/09/21 09:31:26;;;;;;;6.27;1.30;;;;;;;;;;5079648;28;20619;-78
2022/09/21 09:34:39;;;;;;;4.17;1.30;;;;;;;;;;5078311;28;20519;-79
2022/09/21 09:37:44;;;;;;;3.77;1.30;;;;;;;;;;5079618;28;20184;-79
2022/09/21 09:41:13;;;;;;;4.77;1.77;;;;;;;;;;5066964;28;20203;-78
2022/09/21 09:45:14;;;;;;;2.53;1.70;;;;;;;;;;5078271;28;20181;-78
2022/09/21 09:48:33;;;;;;;2.67;1.30;;;;;;;;;;5036202;28;20195;-79
2022/09/21 09:51:39;;;;;;;3.67;1.30;;;;;;;;;;5032854;28;20690;-78
2022/09/21 09:54:43;;;;;;;6.10;1.27;;;;;;;;;;5078818;28;20188;-78
2022/09/21 09:57:48;;;;;;;1.83;1.10;;;;;;;;;;5078535;28;20168;-78
2022/09/21 10:00:54;;;;;;;10.13;1.40;;;;;;;;;;5077949;28;20217;-78
2022/09/21 10:04:17;;;;;;;6.47;1.00;;;;;;;;;;5076707;28;20204;-78
2022/09/21 10:07:33;;;;;;;1.97;1.00;;;;;;;;;;5054031;28;20187;-79
2022/09/21 10:10:40;;;;;;;1.43;1.10;;;;;;;;;;5077946;28;20192;-78
2022/09/21 10:13:46;;;;;;;7.30;1.30;;;;;;;;;;5076647;28;20186;-79
2022/09/21 10:16:51;;;;;;;2.30;0.90;;;;;;;;;;5077069;28;20196;-79
2022/09/21 10:20:01;;;;;;;37.03;2.47;;;;;;;;;;5076357;28;20202;-79
2022/09/21 10:23:05;;;;;;;4.00;1.00;;;;;;;;;;5077553;28;20220;-79
2022/09/21 10:26:12;;;;;;;3.00;1.30;;;;;;;;;;5076661;28;20173;-78
2022/09/21 10:29:22;;;;;;;2.00;1.20;;;;;;;;;;5076421;28;20187;-79
2022/09/21 10:32:28;;;;;;;3.37;1.10;;;;;;;;;;5065328;28;20553;-79
2022/09/21 10:35:48;;;;;;;2.33;1.20;;;;;;;;;;5076840;28;20176;-78
2022/09/21 10:38:52;;;;;;;2.73;0.97;;;;;;;;;;5088233;28;20513;-78
2022/09/21 10:42:03;;;;;;;3.13;1.00;;;;;;;;;;5087474;28;20223;-78
2022/09/21 10:45:21;;;;;;;51.37;3.90;;;;;;;;;;5077419;28;20177;-78
2022/09/21 10:48:27;;;;;;;1.40;1.00;;;;;;;;;;5087643;28;20185;-78
2022/09/21 10:51:33;;;;;;;2.93;1.00;;;;;;;;;;5077057;28;20208;-78
2022/09/21 10:54:40;;;;;;;5.00;1.20;;;;;;;;;;5077429;28;20176;-78
2022/09/21 10:57:46;;;;;;;2.37;1.13;;;;;;;;;;5087949;28;20172;-79
2022/09/21 11:00:51;;;;;;;2.67;1.00;;;;;;;;;;5088098;28;20207;-78
2022/09/21 11:04:01;;;;;;;4.03;1.47;;;;;;;;;;5076820;28;20519;-79
2022/09/21 11:07:13;;;;;;;1.27;0.90;;;;;;;;;;5065236;28;20181;-79
2022/09/21 11:10:32;;;;;;;4.87;1.10;;;;;;;;;;5065146;28;20182;-79
2022/09/21 11:13:57;;;;;;;1.63;0.90;;;;;;;;;;5077129;28;20658;-80
2022/09/21 11:17:35;;;;;;;74.93;4.13;;;;;;;;;;5069061;28;20176;-79
2022/09/21 11:20:52;;;;;;;1.97;0.80;;;;;;;;;;5069289;28;20203;-80
2022/09/21 11:24:06;;;;;;;32.10;1.93;;;;;;;;;;5081970;28;20179;-80
2022/09/21 11:27:32;;;;;;;1.33;1.00;;;;;;;;;;5081023;28;20580;-80
2022/09/21 11:31:06;;;;;;;1.20;1.00;;;;;;;;;;5080333;28;20547;-77
2022/09/21 11:34:28;;;;;;;26.90;2.60;;;;;;;;;;5076553;28;20203;-78
2022/09/21 11:37:44;;;;;;;1.40;0.93;;;;;;;;;;5080409;28;20176;-79
2022/09/21 11:41:22;;;;;;;7.03;1.13;;;;;;;;;;5079627;28;20215;-78
2022/09/21 11:44:48;;;;;;;1.40;0.87;;;;;;;;;;5080286;28;20183;-78
2022/09/21 11:48:23;;;;;;;14.17;1.83;;;;;;;;;;5079960;28;20168;-79
2022/09/21 11:51:49;;;;;;;11.17;1.30;;;;;;;;;;5080734;28;20215;-78
2022/09/21 11:55:14;;;;;;;0.93;0.83;;;;;;;;;;5079688;28;20631;-78
2022/09/21 11:58:39;;;;;;;13.67;1.60;;;;;;;;;;5081321;28;20191;-79
2022/09/21 12:02:23;;;;;;;1.40;0.80;;;;;;;;;;5079866;28;20227;-79
2022/09/21 12:05:41;;;;;;;7.63;0.90;;;;;;;;;;5079716;28;20183;-78
2022/09/21 12:09:20;;;;;;;70.83;4.17;;;;;;;;;;5079566;28;20188;-79
2022/09/21 12:12:34;;;;;;;2.00;1.00;;;;;;;;;;5079216;28;20207;-79
2022/09/21 12:15:50;;;;;;;4.57;1.10;;;;;;;;;;5068201;28;20184;-78
2022/09/21 12:19:47;;;;;;;2.40;1.13;;;;;;;;;;5080136;28;20183;-79
2022/09/21 12:22:58;;;;;;;3.90;0.90;;;;;;;;;;5062557;28;20214;-79
2022/09/21 12:26:05;;;;;;;23.27;2.10;;;;;;;;;;5079335;28;20180;-77
2022/09/21 12:29:18;;;;;;;30.77;2.30;;;;;;;;;;5078401;28;20528;-78
2022/09/21 12:32:43;;;;;;;2.43;1.10;;;;;;;;;;5067149;28;20207;-78
2022/09/21 12:35:58;;;;;;;2.93;1.00;;;;;;;;;;5079443;28;20180;-78
2022/09/21 12:39:36;;;;;;;1.27;0.80;;;;;;;;;;5079934;28;20516;-78
2022/09/21 12:42:47;;;;;;;3.47;0.80;;;;;;;;;;5077865;28;20589;-78
2022/09/21 12:45:57;;;;;;;33.23;2.43;;;;;;;;;;5079140;28;20184;-78
2022/09/21 12:49:13;;;;;;;6.00;1.20;;;;;;;;;;5079018;28;20202;-78
2022/09/21 12:52:26;;;;;;;2.63;0.87;;;;;;;;;;5090395;28;20219;-78
2022/09/21 12:55:44;;;;;;;4.20;1.07;;;;;;;;;;5079057;28;20539;-78
2022/09/21 12:59:28;;;;;;;8.60;1.00;;;;;;;;;;5067526;28;20199;-79
2022/09/21 13:02:40;;;;;;;12.63;1.70;;;;;;;;;;5078290;28;20235;-78
2022/09/21 13:06:18;;;;;;;1.53;1.10;;;;;;;;;;5078199;28;20171;-78
2022/09/21 13:09:24;;;;;;;2.83;0.80;;;;;;;;;;5088200;28;20179;-79
2022/09/21 13:12:36;;;;;;;1.23;0.80;;;;;;;;;;5077448;28;20207;-78
2022/09/21 13:15:44;;;;;;;3.90;0.70;;;;;;;;;;5089164;28;20192;-78
2022/09/21 13:18:57;;;;;;;4.47;0.90;;;;;;;;;;5077415;28;20180;-78
2022/09/21 13:22:18;;;;;;;4.87;1.10;;;;;;;;;;5077743;28;20215;-78
2022/09/21 13:25:26;;;;;;;80.90;5.37;;;;;;;;;;5077192;28;20176;-79
2022/09/21 13:28:49;;;;;;;2.23;0.80;;;;;;;;;;5078880;28;20183;-78
2022/09/21 13:31:58;;;;;;;63.97;4.30;;;;;;;;;;5065707;28;20215;-79
2022/09/21 13:35:39;;;;;;;12.13;1.40;;;;;;;;;;5077774;28;20172;-79
2022/09/21 13:38:44;;;;;;;46.07;2.20;;;;;;;;;;5088719;28;20175;-78
2022/09/21 13:41:48;;;;;;;12.37;2.30;;;;;;;;;;5064583;28;20219;-78
2022/09/21 13:44:53;;;;;;;87.73;5.67;;;;;;;;;;5063863;28;20178;-78
2022/09/21 13:48:01;;;;;;;3.70;1.00;;;;;;;;;;5064828;28;20191;-79
2022/09/21 13:51:08;;;;;;;3.97;1.00;;;;;;;;;;5074401;28;20187;-77
2022/09/21 13:54:13;;;;;;;2.00;0.77;;;;;;;;;;5098697;28;20187;-79
2022/09/21 13:57:27;;;;;;;54.83;3.17;;;;;;;;;;5097637;28;20198;-79
2022/09/21 14:00:34;;;;;;;1.10;0.73;;;;;;;;;;5096534;28;20186;-79
2022/09/21 14:03:45;;;;;;;2.70;0.90;;;;;;;;;;5097753;28;20179;-78
2022/09/21 14:06:52;;;;;;;2.00;0.70;;;;;;;;;;5096151;28;20179;-78
2022/09/21 14:10:07;;;;;;;1.37;0.70;;;;;;;;;;5095728;28;20178;-77
2022/09/21 14:13:26;;;;;;;1.63;0.70;;;;;;;;;;5094697;28;20202;-77
2022/09/21 14:16:35;;;;;;;0.90;0.80;;;;;;;;;;5096477;28;20183;-78
2022/09/21 14:19:40;;;;;;;5.77;1.07;;;;;;;;;;5096651;28;20175;-78
2022/09/21 14:22:44;;;;;;;5.43;0.90;;;;;;;;;;5094165;28;20226;-77
2022/09/21 14:25:56;;;;;;;3.80;0.80;;;;;;;;;;5095504;28;20515;-78
2022/09/21 14:29:19;;;;;;;38.57;2.53;;;;;;;;;;5095863;28;20182;-78
2022/09/21 14:32:27;;;;;;;3.67;0.90;;;;;;;;;;5095854;28;20214;-78
2022/09/21 14:35:33;;;;;;;2.30;0.63;;;;;;;;;;5082009;28;20170;-77
2022/09/21 14:38:48;;;;;;;1.23;0.60;;;;;;;;;;5094937;28;20527;-77
2022/09/21 14:41:56;;;;;;;3.53;1.07;;;;;;;;;;5095026;28;20226;-77
2022/09/21 14:45:02;;;;;;;4.10;1.47;;;;;;;;;;5094290;28;20171;-77
2022/09/21 14:48:19;;;;;;;1.23;0.70;;;;;;;;;;5096166;28;20198;-78
2022/09/21 14:51:58;;;;;;;1.30;0.73;;;;;;;;;;5098257;28;20214;-78
2022/09/21 14:55:30;;;;;;;1.30;0.60;;;;;;;;;;5099730;28;20622;-78
2022/09/21 14:59:19;;;;;;;0.70;0.60;;;;;;;;;;5099496;28;20178;-77
2022/09/21 15:02:34;;;;;;;1.40;0.77;;;;;;;;;;5099656;28;20230;-77
2022/09/21 15:05:43;;;;;;;1.50;0.70;;;;;;;;;;5099571;28;20175;-77
2022/09/21 15:12:56;;;;;;;0.80;0.60;;;;;;;;;;5099954;28;20706;-77
2022/09/21 15:16:18;;;;;;;2.53;0.60;;;;;;;;;;5086771;28;20178;-77
2022/09/21 15:19:26;;;;;;;19.37;1.60;;;;;;;;;;5097883;28;20187;-77
2022/09/21 15:22:30;;;;;;;1.13;0.70;;;;;;;;;;5098295;28;20222;-77
2022/09/21 15:25:34;;;;;;;2.83;0.77;;;;;;;;;;5098036;28;20183;-77
2022/09/21 15:28:47;;;;;;;1.07;0.87;;;;;;;;;;5097593;28;20182;-76
2022/09/21 15:31:52;;;;;;;2.03;0.90;;;;;;;;;;5085781;28;20550;-77
2022/09/21 15:35:00;;;;;;;6.73;1.53;;;;;;;;;;5097396;28;20178;-77
2022/09/21 15:38:29;;;;;;;11.57;1.60;;;;;;;;;;5097262;28;20199;-77
2022/09/21 15:41:33;;;;;;;3.97;1.30;;;;;;;;;;5097073;28;20230;-77
2022/09/21 15:44:38;;;;;;;10.67;1.43;;;;;;;;;;5096629;28;20183;-77
2022/09/21 15:47:43;;;;;;;3.67;1.10;;;;;;;;;;5098338;28;20179;-77
2022/09/21 15:51:13;;;;;;;6.23;1.00;;;;;;;;;;5085559;28;20519;-77
2022/09/21 15:54:30;;;;;;;0.80;0.70;;;;;;;;;;5098611;28;20182;-77
2022/09/21 15:57:39;;;;;;;1.90;0.60;;;;;;;;;;5096840;28;20623;-77
2022/09/21 16:00:55;;;;;;;24.60;1.43;;;;;;;;;;5097924;28;20171;-77
2022/09/21 16:04:05;;;;;;;15.17;1.27;;;;;;;;;;5097643;28;20191;-78
2022/09/21 16:07:30;;;;;;;8.30;0.83;;;;;;;;;;5085795;28;20654;-78
2022/09/21 16:10:39;;;;;;;3.93;0.77;;;;;;;;;;5098516;28;20183;-78
2022/09/21 16:17:08;;;;;;;2.50;0.70;;;;;;;;;;5097945;28;20187;-78
2022/09/21 16:20:18;;;;;;;2.07;0.80;;;;;;;;;;5097825;28;20182;-77
2022/09/21 16:23:28;;;;;;;1.60;1.03;;;;;;;;;;5097633;28;20222;-77
2022/09/21 16:26:38;;;;;;;3.23;1.30;;;;;;;;;;5097730;28;20201;-78
2022/09/21 16:29:44;;;;;;;3.03;1.13;;;;;;;;;;5097877;28;20614;-78
2022/09/21 16:32:48;;;;;;;2.53;1.40;;;;;;;;;;5096786;28;20211;-77
2022/09/21 16:35:53;;;;;;;5.30;2.13;;;;;;;;;;5096756;28;20183;-78
2022/09/21 16:38:59;;;;;;;14.37;1.70;;;;;;;;;;5097447;28;20183;-78
2022/09/21 16:42:04;;;;;;;19.37;1.93;;;;;;;;;;5085086;28;20227;-77
2022/09/21 16:45:18;;;;;;;1.63;1.00;;;;;;;;;;5097480;28;20183;-77
2022/09/21 16:48:22;;;;;;;4.67;0.97;;;;;;;;;;5096854;28;20182;-78
2022/09/21 16:51:27;;;;;;;3.03;1.23;;;;;;;;;;5084890;28;20214;-77
2022/09/21 16:54:32;;;;;;;1.70;0.90;;;;;;;;;;5096733;28;20641;-77
2022/09/21 16:57:36;;;;;;;1.73;0.93;;;;;;;;;;5096897;28;20527;-77
2022/09/21 17:00:41;;;;;;;11.90;1.83;;;;;;;;;;5084866;28;20198;-78
2022/09/21 17:03:46;;;;;;;10.83;1.47;;;;;;;;;;5097412;28;20218;-78
2022/09/21 17:06:51;;;;;;;9.00;1.33;;;;;;;;;;5085309;28;20183;-78
2022/09/21 17:09:56;;;;;;;1.30;0.80;;;;;;;;;;5097510;28;20178;-79
2022/09/21 17:13:03;;;;;;;2.13;0.90;;;;;;;;;;5096765;28;20669;-79
2022/09/21 17:16:07;;;;;;;24.70;3.03;;;;;;;;;;5097463;28;20179;-79
2022/09/21 17:19:11;;;;;;;16.20;1.50;;;;;;;;;;5085629;28;20187;-78
2022/09/21 17:22:17;;;;;;;3.13;1.00;;;;;;;;;;5096374;28;20235;-78
2022/09/21 17:25:21;;;;;;;5.80;1.10;;;;;;;;;;5097376;28;20182;-78
2022/09/21 17:28:26;;;;;;;5.33;1.13;;;;;;;;;;5097592;28;20179;-79
2022/09/21 17:31:31;;;;;;;1.33;1.00;;;;;;;;;;5097211;28;20662;-79
2022/09/21 17:34:35;;;;;;;4.43;1.33;;;;;;;;;;5097039;28;20650;-78
2022/09/21 17:37:39;;;;;;;1.80;1.10;;;;;;;;;;5096569;28;20179;-78
2022/09/21 17:40:44;;;;;;;3.33;1.00;;;;;;;;;;5083148;28;20167;-77
2022/09/21 17:44:04;;;;;;;1.00;0.90;;;;;;;;;;5095357;28;20207;-77
2022/09/21 17:47:17;;;;;;;6.03;1.03;;;;;;;;;;5095698;28;20186;-77
2022/09/21 17:50:27;;;;;;;2.83;1.20;;;;;;;;;;5095329;28;20661;-76
2022/09/21 17:53:35;;;;;;;1.43;1.00;;;;;;;;;;5095699;28;20619;-77
2022/09/21 17:57:03;;;;;;;1.90;1.13;;;;;;;;;;5083256;28;20199;-77
2022/09/21 18:00:18;;;;;;;1.33;0.90;;;;;;;;;;5081839;28;20190;-76
2022/09/21 18:03:25;;;;;;;3.90;1.50;;;;;;;;;;5082459;28;20226;-79
2022/09/21 18:06:30;;;;;;;2.77;1.23;;;;;;;;;;5096939;28;20187;-78
2022/09/21 18:09:34;;;;;;;4.60;1.00;;;;;;;;;;5096143;28;20178;-78
2022/09/21 18:12:54;;;;;;;1.77;1.20;;;;;;;;;;5083971;28;20206;-78
2022/09/21 18:16:28;;;;;;;1.67;1.20;;;;;;;;;;5107483;28;20187;-78
2022/09/21 18:19:38;;;;;;;1.97;1.37;;;;;;;;;;5084208;28;20178;-77
2022/09/21 18:22:52;;;;;;;1.90;1.23;;;;;;;;;;5095343;28;20749;-77
2022/09/21 18:25:58;;;;;;;1.73;1.17;;;;;;;;;;5072374;28;20221;-79
2022/09/21 18:29:03;;;;;;;2.95;1.58;;;;;;;;;;5095608;28;20674;-77
2022/09/21 18:32:25;;;;;;;2.70;1.20;;;;;;;;;;5097233;28;20210;-79
2022/09/21 18:35:54;;;;;;;3.40;1.27;;;;;;;;;;5096293;28;20187;-79
2022/09/21 18:39:30;;;;;;;3.00;1.30;;;;;;;;;;5108667;28;20179;-78
2022/09/21 18:42:49;;;;;;;2.00;1.53;;;;;;;;;;5073580;28;20223;-78
2022/09/21 18:46:05;;;;;;;5.03;1.37;;;;;;;;;;5074106;28;20175;-79
2022/09/21 18:49:42;;;;;;;4.30;1.50;;;;;;;;;;5074472;28;20179;-80
2022/09/21 18:52:52;;;;;;;2.57;1.40;;;;;;;;;;5074185;28;20214;-79
2022/09/21 18:55:56;;;;;;;1.87;1.20;;;;;;;;;;5084925;28;20198;-79
2022/09/21 18:59:01;;;;;;;1.63;1.30;;;;;;;;;;5073660;28;20199;-79
2022/09/21 19:02:15;;;;;;;2.97;1.30;;;;;;;;;;5097503;28;20211;-79
2022/09/21 19:05:20;;;;;;;3.87;1.50;;;;;;;;;;5097272;28;20183;-79
2022/09/21 19:08:42;;;;;;;1.40;1.30;;;;;;;;;;5098288;28;20174;-80
2022/09/21 19:12:12;;;;;;;3.30;1.90;;;;;;;;;;5096199;28;20214;-79